createdAt,value
2019-03-09T00:03:14.838Z,35.40
2019-03-09T00:06:30.771Z,35.70
2019-03-09T00:09:46.787Z,35.40
2019-03-09T00:13:02.624Z,35.60
2019-03-09T00:16:17.822Z,35.50
2019-03-09T00:19:33.792Z,35.40
2019-03-09T00:22:51.156Z,35.60
2019-03-09T00:26:10.896Z,36.00
2019-03-09T00:29:28.596Z,35.60
2019-03-09T00:32:44.609Z,35.40
2019-03-09T00:36:00.589Z,35.60
2019-03-09T00:39:15.772Z,35.40
2019-03-09T00:42:31.813Z,35.60
2019-03-09T00:45:47.874Z,35.60
2019-03-09T00:49:04.015Z,35.60
2019-03-09T00:52:17.660Z,35.50
2019-03-09T00:55:33.230Z,35.60
2019-03-09T00:58:49.233Z,35.50
2019-03-09T01:02:05.068Z,35.40
2019-03-09T01:05:20.812Z,36.10
2019-03-09T01:08:36.829Z,35.30
2019-03-09T01:11:52.795Z,35.40
2019-03-09T01:15:08.588Z,35.50
2019-03-09T01:18:24.192Z,35.30
2019-03-09T01:21:40.255Z,35.40
2019-03-09T01:24:56.045Z,35.50
2019-03-09T01:31:29.280Z,35.50
2019-03-09T01:34:44.535Z,35.30
2019-03-09T01:37:59.948Z,35.50
2019-03-09T01:41:15.242Z,35.40
2019-03-09T01:44:31.159Z,35.50
2019-03-09T01:47:46.927Z,35.30
2019-03-09T01:51:03.108Z,35.50
2019-03-09T01:54:19.025Z,35.30
2019-03-09T01:57:35.200Z,35.50
2019-03-09T02:00:51.121Z,35.30
2019-03-09T02:04:07.157Z,35.30
2019-03-09T02:07:23.212Z,35.60
2019-03-09T02:10:39.236Z,36.00
2019-03-09T02:13:55.148Z,35.30
2019-03-09T02:17:11.169Z,36.00
2019-03-09T02:20:27.213Z,35.60
2019-03-09T02:23:43.001Z,35.30
2019-03-09T02:26:58.956Z,35.30
2019-03-09T02:30:14.766Z,35.30
2019-03-09T02:33:30.809Z,35.30
2019-03-09T02:36:46.689Z,35.50
2019-03-09T02:40:03.584Z,35.40
2019-03-09T02:43:18.942Z,35.50
2019-03-09T02:46:34.784Z,35.30
2019-03-09T02:49:50.620Z,35.30
2019-03-09T02:53:05.803Z,35.40
2019-03-09T02:59:45.681Z,35.30
2019-03-09T03:03:06.218Z,35.50
2019-03-09T03:06:21.883Z,35.30
2019-03-09T03:09:37.856Z,35.50
2019-03-09T03:12:53.896Z,35.50
2019-03-09T03:16:09.264Z,35.50
2019-03-09T03:19:22.860Z,35.50
2019-03-09T03:22:38.135Z,35.60
2019-03-09T03:25:54.042Z,35.50
2019-03-09T03:29:09.543Z,35.60
2019-03-09T03:32:27.157Z,35.30
2019-03-09T03:35:42.385Z,35.60
2019-03-09T03:38:57.713Z,35.60
2019-03-09T03:42:12.988Z,35.30
2019-03-09T03:45:28.206Z,35.30
2019-03-09T03:48:44.186Z,36.00
2019-03-09T03:51:59.980Z,35.50
2019-03-09T03:55:16.068Z,35.40
2019-03-09T03:58:31.989Z,35.50
2019-03-09T04:01:45.526Z,35.60
2019-03-09T04:05:08.226Z,35.50
2019-03-09T04:08:23.849Z,35.50
2019-03-09T04:11:39.717Z,36.00
2019-03-09T04:14:55.530Z,35.50
2019-03-09T04:18:11.421Z,35.50
2019-03-09T04:21:27.393Z,35.60
2019-03-09T04:24:43.194Z,35.50
2019-03-09T04:27:56.753Z,35.40
2019-03-09T04:31:19.436Z,35.40
2019-03-09T04:34:34.829Z,35.50
2019-03-09T04:37:50.492Z,35.90
2019-03-09T04:41:06.261Z,35.30
2019-03-09T04:44:22.089Z,35.50
2019-03-09T04:47:37.333Z,35.50
2019-03-09T04:50:53.491Z,35.50
2019-03-09T04:54:09.318Z,35.30
2019-03-09T04:57:24.633Z,35.50
2019-03-09T05:00:39.780Z,35.30
2019-03-09T05:03:55.680Z,35.50
2019-03-09T05:07:11.498Z,35.30
2019-03-09T05:10:27.419Z,35.30
2019-03-09T05:13:42.776Z,35.30
2019-03-09T05:16:58.815Z,35.50
2019-03-09T05:20:14.868Z,35.30
2019-03-09T05:23:30.781Z,35.20
2019-03-09T05:26:46.678Z,35.30
2019-03-09T05:30:02.448Z,35.20
2019-03-09T05:33:18.300Z,35.40
2019-03-09T05:36:34.136Z,35.30
2019-03-09T05:39:47.676Z,35.50
2019-03-09T05:43:03.377Z,35.40
2019-03-09T05:46:19.297Z,35.30
2019-03-09T05:49:35.144Z,35.40
2019-03-09T05:52:50.955Z,35.10
2019-03-09T05:56:07.862Z,35.30
2019-03-09T05:59:24.044Z,35.30
2019-03-09T06:02:40.066Z,35.30
2019-03-09T06:05:55.331Z,35.30
2019-03-09T06:09:11.484Z,35.10
2019-03-09T06:12:25.134Z,35.20
2019-03-09T06:15:47.813Z,35.10
2019-03-09T06:19:03.056Z,35.30
2019-03-09T06:22:18.280Z,35.20
2019-03-09T06:25:33.739Z,35.30
2019-03-09T06:28:48.976Z,35.00
2019-03-09T06:32:05.020Z,35.20
2019-03-09T06:35:20.255Z,35.30
2019-03-09T06:38:35.557Z,35.00
2019-03-09T06:41:51.744Z,35.10
2019-03-09T06:45:06.993Z,35.20
2019-03-09T06:48:23.129Z,35.20
2019-03-09T06:51:43.075Z,35.10
2019-03-09T06:54:59.039Z,35.20
2019-03-09T06:58:14.935Z,35.00
2019-03-09T07:01:30.596Z,35.00
2019-03-09T07:04:46.628Z,35.20
2019-03-09T07:08:04.561Z,35.00
2019-03-09T07:11:19.965Z,35.00
2019-03-09T07:14:35.780Z,34.90
2019-03-09T07:17:51.830Z,34.90
2019-03-09T07:21:07.060Z,35.00
2019-03-09T07:24:23.071Z,35.00
2019-03-09T07:27:38.814Z,35.10
2019-03-09T07:30:56.562Z,35.20
2019-03-09T07:34:12.359Z,35.00
2019-03-09T07:37:28.483Z,35.20
2019-03-09T07:40:44.144Z,35.20
2019-03-09T07:43:57.746Z,35.20
2019-03-09T07:47:20.442Z,35.20
2019-03-09T07:50:36.477Z,35.00
2019-03-09T08:00:41.028Z,35.20
2019-03-09T08:03:57.097Z,35.10
2019-03-09T08:07:10.737Z,35.00
2019-03-09T08:10:33.414Z,35.20
2019-03-09T08:13:49.339Z,35.20
2019-03-09T08:17:05.561Z,35.40
2019-03-09T08:20:20.802Z,35.30
2019-03-09T08:23:36.929Z,35.60
2019-03-09T08:26:52.759Z,36.50
2019-03-09T08:30:08.116Z,35.70
2019-03-09T08:33:23.364Z,35.60
2019-03-09T08:36:39.457Z,35.90
2019-03-09T08:39:55.558Z,36.00
2019-03-09T08:43:11.565Z,35.80
2019-03-09T08:46:32.243Z,35.70
2019-03-09T08:49:50.675Z,36.00
2019-03-09T08:53:06.691Z,36.00
2019-03-09T08:56:21.972Z,35.70
2019-03-09T08:59:38.113Z,35.90
2019-03-09T09:02:54.127Z,35.50
2019-03-09T09:06:10.246Z,35.70
2019-03-09T09:09:26.356Z,35.70
2019-03-09T09:12:42.380Z,35.70
2019-03-09T09:15:57.603Z,35.80
2019-03-09T09:19:11.185Z,35.90
2019-03-09T09:22:14.435Z,36.10
2019-03-09T09:25:37.195Z,36.00
2019-03-09T09:28:52.733Z,35.70
2019-03-09T09:32:08.446Z,35.30
2019-03-09T09:35:24.543Z,35.60
2019-03-09T09:38:40.625Z,36.20
2019-03-09T09:41:55.841Z,35.70
2019-03-09T09:44:59.088Z,35.50
2019-03-09T09:48:21.789Z,35.80
2019-03-09T09:51:44.469Z,35.50
2019-03-09T09:55:00.311Z,36.10
2019-03-09T09:58:03.595Z,35.90
2019-03-09T10:01:19.315Z,36.10
2019-03-09T10:04:35.449Z,36.10
2019-03-09T10:07:50.703Z,35.90
2019-03-09T10:11:06.705Z,36.10
2019-03-09T10:14:22.471Z,35.90
2019-03-09T10:17:38.131Z,35.80
2019-03-09T10:20:54.195Z,35.80
2019-03-09T10:24:10.102Z,35.80
2019-03-09T10:27:25.439Z,35.70
2019-03-09T10:30:41.458Z,35.70
2019-03-09T10:33:56.842Z,35.70
2019-03-09T10:37:12.093Z,35.90
2019-03-09T10:40:27.513Z,35.90
2019-03-09T10:43:42.948Z,36.00
2019-03-09T10:46:58.854Z,35.70
2019-03-09T10:50:14.128Z,35.80
2019-03-09T10:53:29.419Z,35.90
2019-03-09T10:56:45.501Z,35.70
2019-03-09T11:00:01.486Z,35.60
2019-03-09T11:03:17.012Z,35.70
2019-03-09T11:09:49.737Z,35.50
2019-03-09T11:13:05.696Z,35.70
2019-03-09T11:16:21.744Z,35.80
2019-03-09T11:19:37.063Z,35.70
2019-03-09T11:22:53.104Z,35.70
2019-03-09T11:26:09.176Z,35.60
2019-03-09T11:29:22.824Z,35.70
2019-03-09T11:32:45.500Z,35.40
2019-03-09T11:36:02.805Z,35.40
2019-03-09T11:39:18.148Z,35.40
2019-03-09T11:42:33.490Z,35.50
2019-03-09T11:45:49.580Z,35.40
2019-03-09T11:49:04.815Z,35.30
2019-03-09T11:52:20.773Z,35.40
2019-03-09T11:55:36.789Z,35.10
2019-03-09T11:58:52.257Z,35.00
2019-03-09T12:02:08.117Z,34.90
2019-03-09T12:05:23.513Z,35.20
2019-03-09T12:08:39.470Z,34.50
2019-03-09T12:11:55.550Z,36.00
2019-03-09T12:15:11.239Z,35.50
2019-03-09T12:18:27.337Z,35.20
2019-03-09T12:21:42.901Z,35.20
2019-03-09T12:24:58.121Z,35.20
2019-03-09T12:28:13.342Z,35.40
2019-03-09T12:31:29.369Z,35.20
2019-03-09T12:34:45.136Z,35.30
2019-03-09T12:37:58.696Z,35.50
2019-03-09T12:41:14.347Z,35.40
2019-03-09T12:44:29.505Z,35.50
2019-03-09T12:47:45.537Z,35.50
2019-03-09T12:51:01.379Z,35.50
2019-03-09T13:01:06.058Z,35.40
2019-03-09T13:04:21.952Z,35.50
2019-03-09T13:07:37.777Z,35.60
2019-03-09T13:10:55.801Z,35.50
2019-03-09T13:14:10.789Z,35.60
2019-03-09T13:17:26.633Z,35.40
2019-03-09T13:20:42.589Z,35.60
2019-03-09T13:23:58.344Z,35.40
2019-03-09T13:27:13.657Z,35.30
2019-03-09T13:30:29.341Z,35.40
2019-03-09T13:33:44.545Z,35.20
2019-03-09T13:36:47.791Z,35.50
2019-03-09T13:40:11.135Z,35.50
2019-03-09T13:43:41.310Z,35.30
2019-03-09T13:46:56.772Z,35.10
2019-03-09T13:50:12.024Z,35.30
2019-03-09T13:53:27.346Z,35.10
2019-03-09T13:56:30.596Z,35.10
2019-03-09T13:59:33.846Z,35.30
2019-03-09T14:02:37.097Z,35.30
2019-03-09T14:05:59.819Z,35.30
2019-03-09T14:09:22.497Z,35.20
2019-03-09T14:12:38.014Z,35.40
2019-03-09T14:15:53.910Z,35.70
2019-03-09T14:19:10.220Z,35.80
2019-03-09T14:22:13.469Z,35.60
2019-03-09T14:25:36.147Z,35.80
2019-03-09T14:28:58.835Z,35.70
2019-03-09T14:32:14.088Z,35.60
2019-03-09T14:35:29.390Z,35.80
2019-03-09T14:38:45.476Z,35.60
2019-03-09T14:42:01.470Z,35.80
2019-03-09T14:45:17.376Z,35.60
2019-03-09T14:48:33.309Z,35.60
2019-03-09T14:51:49.182Z,35.80
2019-03-09T14:55:04.386Z,35.70
2019-03-09T14:58:07.625Z,35.80
2019-03-09T15:01:23.041Z,35.80
2019-03-09T15:04:38.981Z,35.80
2019-03-09T15:07:54.279Z,35.80
2019-03-09T15:11:09.493Z,35.50
2019-03-09T15:14:23.169Z,35.60
2019-03-09T15:17:39.220Z,35.70
2019-03-09T15:20:54.632Z,35.60
2019-03-09T15:24:10.666Z,35.70
2019-03-09T15:27:26.772Z,35.80
2019-03-09T15:30:42.804Z,35.80
2019-03-09T15:33:58.840Z,35.60
2019-03-09T15:37:02.150Z,35.80
2019-03-09T15:40:24.836Z,35.80
2019-03-09T15:43:47.516Z,35.80
2019-03-09T15:47:10.198Z,35.70
2019-03-09T15:50:26.361Z,35.60
2019-03-09T15:53:41.912Z,35.80
2019-03-09T15:56:46.273Z,35.50
2019-03-09T15:59:49.597Z,35.80
2019-03-09T16:02:52.904Z,35.80
2019-03-09T16:05:56.176Z,35.80
2019-03-09T16:09:18.842Z,35.80
2019-03-09T16:12:34.443Z,35.80
2019-03-09T16:15:37.697Z,35.60
2019-03-09T16:19:00.369Z,35.80
2019-03-09T16:22:23.035Z,35.50
2019-03-09T16:25:36.627Z,35.60
2019-03-09T16:28:51.798Z,35.40
2019-03-09T16:32:07.950Z,35.50
2019-03-09T16:35:21.516Z,35.50
2019-03-09T16:38:37.662Z,35.30
2019-03-09T16:41:53.025Z,35.30
2019-03-09T16:45:09.074Z,35.20
2019-03-09T16:48:25.234Z,35.20
2019-03-09T16:51:41.252Z,35.20
2019-03-09T16:54:56.468Z,35.20
2019-03-09T16:58:12.377Z,35.30
2019-03-09T17:01:28.233Z,35.50
2019-03-09T17:04:44.001Z,35.20
2019-03-09T17:08:00.015Z,35.40
2019-03-09T17:11:16.057Z,35.30
2019-03-09T17:14:31.432Z,35.40
2019-03-09T17:17:47.314Z,35.50
2019-03-09T17:21:03.400Z,35.50
2019-03-09T17:24:19.471Z,35.20
2019-03-09T17:27:35.283Z,35.50
2019-03-09T17:30:50.527Z,35.30
2019-03-09T17:34:05.738Z,35.30
2019-03-09T17:37:21.233Z,35.40
2019-03-09T17:40:36.421Z,35.90
2019-03-09T17:43:52.417Z,35.40
2019-03-09T17:47:08.401Z,35.50
2019-03-09T17:50:24.440Z,35.60
2019-03-09T17:53:40.426Z,35.60
2019-03-09T17:56:56.142Z,35.70
2019-03-09T18:00:11.598Z,35.60
2019-03-09T18:03:27.446Z,35.50
2019-03-09T18:06:43.322Z,35.70
2019-03-09T18:09:59.237Z,35.80
2019-03-09T18:13:14.561Z,35.50
2019-03-09T18:16:30.651Z,35.80
2019-03-09T18:19:44.273Z,35.60
2019-03-09T18:23:06.959Z,35.70
2019-03-09T18:26:22.706Z,35.60
2019-03-09T18:29:37.949Z,35.70
2019-03-09T18:32:56.838Z,35.70
2019-03-09T18:36:12.256Z,35.50
2019-03-09T18:39:28.320Z,35.50
2019-03-09T18:42:43.525Z,35.60
2019-03-09T18:46:01.027Z,35.70
2019-03-09T18:49:16.450Z,35.70
2019-03-09T18:52:32.621Z,35.60
2019-03-09T18:55:58.614Z,35.50
2019-03-09T18:59:05.643Z,35.50
2019-03-09T19:02:20.898Z,35.60
2019-03-09T19:05:36.642Z,35.70
2019-03-09T19:08:52.683Z,35.80
2019-03-09T19:12:08.708Z,35.80
2019-03-09T19:15:24.663Z,35.90
2019-03-09T19:18:40.792Z,35.90
2019-03-09T19:21:56.484Z,35.70
2019-03-09T19:24:59.736Z,35.80
2019-03-09T19:28:22.440Z,36.00
2019-03-09T19:31:45.121Z,36.00
2019-03-09T19:35:00.836Z,35.90
2019-03-09T19:38:16.124Z,35.70
2019-03-09T19:41:31.624Z,36.00
2019-03-09T19:44:46.861Z,35.80
2019-03-09T19:48:02.104Z,35.80
2019-03-09T19:51:18.191Z,35.80
2019-03-09T19:54:33.611Z,36.40
2019-03-09T19:57:49.534Z,35.60
2019-03-09T20:01:05.557Z,35.70
2019-03-09T20:04:21.451Z,35.90
2019-03-09T20:07:36.808Z,35.60
2019-03-09T20:10:56.893Z,35.60
2019-03-09T20:14:12.864Z,35.70
2019-03-09T20:17:28.852Z,35.80
2019-03-09T20:20:44.708Z,35.50
2019-03-09T20:24:03.337Z,35.50
2019-03-09T20:27:18.881Z,35.60
2019-03-09T20:30:34.937Z,35.60
2019-03-09T20:33:50.894Z,35.50
2019-03-09T20:37:06.145Z,35.40
2019-03-09T20:40:22.129Z,35.50
2019-03-09T20:43:38.040Z,35.60
2019-03-09T20:46:54.102Z,35.50
2019-03-09T20:50:10.145Z,35.90
2019-03-09T20:53:25.508Z,35.10
2019-03-09T20:56:41.448Z,35.30
2019-03-09T20:59:57.365Z,35.20
2019-03-09T21:03:13.400Z,35.00
2019-03-09T21:06:29.130Z,35.00
2019-03-09T21:09:44.434Z,34.80
2019-03-09T21:13:00.657Z,34.70
2019-03-09T21:16:16.430Z,34.90
2019-03-09T21:19:31.686Z,34.60
2019-03-09T21:22:47.709Z,34.90
2019-03-09T21:26:01.345Z,34.60
2019-03-09T21:29:24.109Z,34.70
2019-03-09T21:32:40.075Z,34.60
2019-03-09T21:35:56.191Z,34.60
2019-03-09T21:39:11.480Z,34.80
2019-03-09T21:42:25.096Z,34.50
2019-03-09T21:45:28.411Z,34.80
2019-03-09T21:48:51.089Z,34.70
2019-03-09T21:52:13.761Z,34.50
2019-03-09T21:55:29.055Z,34.60
2019-03-09T21:58:45.111Z,34.50
2019-03-09T22:02:00.348Z,34.30
2019-03-09T22:05:16.524Z,34.40
2019-03-09T22:08:32.440Z,34.70
2019-03-09T22:11:48.697Z,34.50
2019-03-09T22:15:06.086Z,34.30
2019-03-09T22:18:21.411Z,34.30
2019-03-09T22:21:37.314Z,34.40
2019-03-09T22:24:52.547Z,34.20
2019-03-09T22:28:07.807Z,34.50
2019-03-09T22:31:23.300Z,34.40
2019-03-09T22:34:36.904Z,34.30
2019-03-09T22:37:59.576Z,34.40
2019-03-09T22:41:15.536Z,34.20
2019-03-09T22:44:31.377Z,34.40
2019-03-09T22:47:46.628Z,34.50
2019-03-09T22:51:01.847Z,34.20
2019-03-09T22:54:17.066Z,34.30
2019-03-09T22:57:32.539Z,34.40
2019-03-09T23:00:48.533Z,35.00
2019-03-09T23:04:06.512Z,34.20
2019-03-09T23:07:21.891Z,34.20
2019-03-09T23:10:37.662Z,34.20
2019-03-09T23:13:53.458Z,34.50
2019-03-09T23:17:09.190Z,34.50
2019-03-09T23:20:24.929Z,34.50
2019-03-09T23:23:40.809Z,34.50
2019-03-09T23:26:56.677Z,34.30
2019-03-09T23:30:12.813Z,34.50
2019-03-09T23:33:28.337Z,34.20
2019-03-09T23:36:44.413Z,34.50
2019-03-09T23:40:00.425Z,34.50
2019-03-09T23:43:16.310Z,34.20
2019-03-09T23:46:32.456Z,34.30
2019-03-09T23:49:48.185Z,35.20
2019-03-09T23:53:03.696Z,34.50
2019-03-09T23:56:19.069Z,34.50
2019-03-09T23:59:35.039Z,34.50
